Airfield :
LOGIN :

Register | Disclaimer

   EN    FR    IT 

 










Legend :    VFR   Marginal VFR   IFR   Intensive IFR   Very Intensive IFR
Visi :
Ceiling :
>= 8 km
>= 3000ft
5 to 8 km
1000 to 3000 ft
1500m to 5 km
500 to 1000 ft
800 to 1500m
200 to 500 ft
< 800m
< 200 ft
Symbols :   Thunderstorms  Fog  Heavy snow  Heavy precipitations  Wind > 20 kt
SIGMETs :     Misc.  Thunderstorms  Icing  Turbulence  Mountain Waves  Volcanic Ashes






- Airport Elevation : 124 ft
- IATA code : RNS


LFRN - Rennes

CURRENT METAR :
  • 100430Z AUTO 16004KT 5000 BR NSC 02/02 Q1027

EXPIRED METARs :
  • 100400Z AUTO 18004KT 5000 BR NSC 02/02 Q1027
  • 100330Z AUTO 13004KT 6000 NSC 03/02 Q1028
  • 100300Z AUTO 19003KT 7000 1800 NSC 03/02 Q1028
  • 100230Z AUTO 15003KT 7000 NSC 03/02 Q1028
  • 100200Z AUTO 14004KT 7000 NSC 03/02 Q1028

TAF TAF LFRN
Valid from the 09 at 18:00 until the 10 at 18:00 UTC


091700Z 0918/1018 32010KT 9999 SCT030
BECMG 0918/0920 VRB05KT
TEMPO 0923/1007 3000 BR
PROB40
TEMPO 1000/1006 0500 FG
BECMG 1006/1008 17010KT
TEMPO 1010/1018 5000 RA BKN012
BECMG 1013/1015 20015G25KT
ATIS : +33 2 99 67 72 50



MET'MAP, your aeronautical weather chart ! - Copyright ORBIFLY December 2007 - Disclaimer

ORBIFLY MET'MAP TEAM :

Programming & Development : Alexandra Zaïnal
Concept & original design : Baudouin d'Aumeries
Assistance for programming : Marc-Olivier Méhu
Technical & hardware support : Manuel Goepfert

Contact : metmap@orbifly.com




SOURCES & CREDITS :

   NOAA